sensor_id;sensor_type;location;lat;lon;timestamp;pressure;altitude;pressure_sealevel;temperature;humidity
60055;BME280;45930;53.514;55.904;2023-06-22T00:00:28;49187.44;;;-149.77;64.47
60055;BME280;45930;53.514;55.904;2023-06-22T00:01:29;49195.34;;;-149.77;64.65
60055;BME280;45930;53.514;55.904;2023-06-22T00:02:30;49191.38;;;-149.77;64.66
60055;BME280;45930;53.514;55.904;2023-06-22T00:03:31;49187.44;;;-149.77;65.13
60055;BME280;45930;53.514;55.904;2023-06-22T00:04:32;49175.53;;;-149.77;64.88
60055;BME280;45930;53.514;55.904;2023-06-22T00:05:33;49203.28;;;-149.77;65.23
60055;BME280;45930;53.514;55.904;2023-06-22T00:06:33;49189.41;;;-149.77;65.77
60055;BME280;45930;53.514;55.904;2023-06-22T00:07:34;49199.31;;;-149.77;66.45
60055;BME280;45930;53.514;55.904;2023-06-22T00:08:35;49197.34;;;-149.77;66.65
60055;BME280;45930;53.514;55.904;2023-06-22T00:09:36;49179.50;;;-149.77;66.31
60055;BME280;45930;53.514;55.904;2023-06-22T00:10:37;49177.53;;;-149.77;66.31
60055;BME280;45930;53.514;55.904;2023-06-22T00:11:37;49171.59;;;-149.77;66.45
60055;BME280;45930;53.514;55.904;2023-06-22T00:12:38;49169.59;;;-149.77;66.76
60055;BME280;45930;53.514;55.904;2023-06-22T00:13:39;49193.38;;;-149.77;67.29
60055;BME280;45930;53.514;55.904;2023-06-22T00:14:40;49169.59;;;-149.77;67.46
60055;BME280;45930;53.514;55.904;2023-06-22T00:15:41;49163.66;;;-149.77;67.26
60055;BME280;45930;53.514;55.904;2023-06-22T00:16:42;49163.66;;;-149.77;67.46
60055;BME280;45930;53.514;55.904;2023-06-22T00:17:43;49201.28;;;-149.77;67.51
60055;BME280;45930;53.514;55.904;2023-06-22T00:18:44;49177.53;;;-149.77;67.53
60055;BME280;45930;53.514;55.904;2023-06-22T00:19:47;49161.69;;;-149.77;67.43
60055;BME280;45930;53.514;55.904;2023-06-22T00:20:56;49157.72;;;-149.77;67.96
60055;BME280;45930;53.514;55.904;2023-06-22T00:22:00;49161.69;;;-149.77;68.56
60055;BME280;45930;53.514;55.904;2023-06-22T00:23:00;49163.66;;;-149.77;68.69
60055;BME280;45930;53.514;55.904;2023-06-22T00:24:01;49175.53;;;-149.77;68.67
60055;BME280;45930;53.514;55.904;2023-06-22T00:25:02;49175.53;;;-149.77;68.74
60055;BME280;45930;53.514;55.904;2023-06-22T00:26:04;49163.66;;;-149.77;68.54
60055;BME280;45930;53.514;55.904;2023-06-22T00:27:05;49147.81;;;-149.77;68.70
60055;BME280;45930;53.514;55.904;2023-06-22T00:28:06;49173.56;;;-149.77;68.66
60055;BME280;45930;53.514;55.904;2023-06-22T00:29:08;49177.53;;;-149.77;68.83
60055;BME280;45930;53.514;55.904;2023-06-22T00:30:09;49171.59;;;-149.77;68.30
60055;BME280;45930;53.514;55.904;2023-06-22T00:31:10;49161.69;;;-149.77;68.24
60055;BME280;45930;53.514;55.904;2023-06-22T00:32:11;49157.72;;;-149.77;68.19
60055;BME280;45930;53.514;55.904;2023-06-22T00:33:11;49195.34;;;-149.77;67.92
60055;BME280;45930;53.514;55.904;2023-06-22T00:34:12;49153.75;;;-149.77;68.37
60055;BME280;45930;53.514;55.904;2023-06-22T00:35:13;49169.59;;;-149.77;68.55
60055;BME280;45930;53.514;55.904;2023-06-22T00:36:14;49163.66;;;-149.77;68.83
60055;BME280;45930;53.514;55.904;2023-06-22T00:37:18;49163.66;;;-149.77;69.28
60055;BME280;45930;53.514;55.904;2023-06-22T00:38:19;49151.78;;;-149.77;69.10
60055;BME280;45930;53.514;55.904;2023-06-22T00:39:23;49153.75;;;-149.77;69.20
60055;BME280;45930;53.514;55.904;2023-06-22T00:40:24;49171.59;;;-149.77;69.56
60055;BME280;45930;53.514;55.904;2023-06-22T00:41:24;49161.69;;;-149.77;69.95
60055;BME280;45930;53.514;55.904;2023-06-22T00:42:29;49179.50;;;-149.77;70.15
60055;BME280;45930;53.514;55.904;2023-06-22T00:43:30;49171.59;;;-149.77;70.28
60055;BME280;45930;53.514;55.904;2023-06-22T00:44:30;49155.75;;;-149.77;70.45
60055;BME280;45930;53.514;55.904;2023-06-22T00:45:31;49187.44;;;-149.77;70.41
60055;BME280;45930;53.514;55.904;2023-06-22T00:46:32;49141.88;;;-149.77;70.08
60055;BME280;45930;53.514;55.904;2023-06-22T00:47:34;49128.00;;;-149.77;69.98
60055;BME280;45930;53.514;55.904;2023-06-22T00:48:36;49171.59;;;-149.77;69.77
60055;BME280;45930;53.514;55.904;2023-06-22T00:49:37;49157.72;;;-149.77;69.52
60055;BME280;45930;53.514;55.904;2023-06-22T00:50:39;49169.59;;;-149.77;69.57
60055;BME280;45930;53.514;55.904;2023-06-22T00:51:40;49141.88;;;-149.77;70.03
60055;BME280;45930;53.514;55.904;2023-06-22T00:52:52;49135.94;;;-149.77;70.66
60055;BME280;45930;53.514;55.904;2023-06-22T00:53:54;49147.81;;;-149.77;71.00
60055;BME280;45930;53.514;55.904;2023-06-22T00:54:56;49139.91;;;-149.77;71.37
60055;BME280;45930;53.514;55.904;2023-06-22T00:55:57;49139.91;;;-149.77;71.44
60055;BME280;45930;53.514;55.904;2023-06-22T00:57:00;49128.00;;;-149.77;70.99
60055;BME280;45930;53.514;55.904;2023-06-22T00:58:01;49122.06;;;-149.77;70.13
60055;BME280;45930;53.514;55.904;2023-06-22T00:59:02;49141.88;;;-149.77;69.89
60055;BME280;45930;53.514;55.904;2023-06-22T01:00:04;49126.03;;;-149.77;70.05
60055;BME280;45930;53.514;55.904;2023-06-22T01:01:10;49147.81;;;-149.77;69.44
60055;BME280;45930;53.514;55.904;2023-06-22T01:02:11;49187.44;;;-149.77;68.90
60055;BME280;45930;53.514;55.904;2023-06-22T01:03:12;49185.44;;;-149.77;68.32
60055;BME280;45930;53.514;55.904;2023-06-22T01:04:13;49130.00;;;-149.77;67.79
60055;BME280;45930;53.514;55.904;2023-06-22T01:05:14;49175.53;;;-149.77;67.41
60055;BME280;45930;53.514;55.904;2023-06-22T01:06:21;49163.66;;;-149.77;67.21
60055;BME280;45930;53.514;55.904;2023-06-22T01:07:34;49169.59;;;-149.77;66.97
60055;BME280;45930;53.514;55.904;2023-06-22T01:08:44;49141.88;;;-149.77;66.76
60055;BME280;45930;53.514;55.904;2023-06-22T01:11:03;49163.66;;;-149.77;67.08
60055;BME280;45930;53.514;55.904;2023-06-22T01:12:07;49159.69;;;-149.77;68.14
60055;BME280;45930;53.514;55.904;2023-06-22T01:15:05;49141.88;;;-149.77;69.00
60055;BME280;45930;53.514;55.904;2023-06-22T01:16:35;49145.84;;;-149.77;69.27
60055;BME280;45930;53.514;55.904;2023-06-22T01:17:40;49124.03;;;-149.77;69.98
60055;BME280;45930;53.514;55.904;2023-06-22T01:18:43;49114.16;;;-149.77;70.32
60055;BME280;45930;53.514;55.904;2023-06-22T01:19:50;49130.00;;;-149.77;70.32
60055;BME280;45930;53.514;55.904;2023-06-22T01:20:56;49098.28;;;-149.77;70.25
60055;BME280;45930;53.514;55.904;2023-06-22T01:22:00;49183.47;;;-149.77;70.46
60055;BME280;45930;53.514;55.904;2023-06-22T01:23:50;49145.84;;;-149.77;69.89
60055;BME280;45930;53.514;55.904;2023-06-22T01:24:57;49135.94;;;-149.77;70.30
60055;BME280;45930;53.514;55.904;2023-06-22T01:26:39;49131.97;;;-149.77;70.01
60055;BME280;45930;53.514;55.904;2023-06-22T01:29:16;49159.69;;;-149.77;70.61
60055;BME280;45930;53.514;55.904;2023-06-22T01:30:18;49133.94;;;-149.77;70.79
60055;BME280;45930;53.514;55.904;2023-06-22T01:31:23;49155.75;;;-149.77;70.92
60055;BME280;45930;53.514;55.904;2023-06-22T01:32:24;49100.28;;;-149.77;71.14
60055;BME280;45930;53.514;55.904;2023-06-22T01:33:26;49094.34;;;-149.77;70.85
60055;BME280;45930;53.514;55.904;2023-06-22T01:34:28;49135.94;;;-149.77;71.12
60055;BME280;45930;53.514;55.904;2023-06-22T01:35:29;49126.03;;;-149.77;70.87
60055;BME280;45930;53.514;55.904;2023-06-22T01:36:32;49122.06;;;-149.77;70.68
60055;BME280;45930;53.514;55.904;2023-06-22T01:37:34;49116.13;;;-149.77;70.53
60055;BME280;45930;53.514;55.904;2023-06-22T01:38:37;49139.91;;;-149.77;70.52
60055;BME280;45930;53.514;55.904;2023-06-22T01:39:39;49120.09;;;-149.77;70.18
60055;BME280;45930;53.514;55.904;2023-06-22T01:40:40;49110.19;;;-149.77;70.20
60055;BME280;45930;53.514;55.904;2023-06-22T01:41:42;49120.09;;;-149.77;70.07
60055;BME280;45930;53.514;55.904;2023-06-22T01:42:44;49131.97;;;-149.77;69.81
60055;BME280;45930;53.514;55.904;2023-06-22T01:43:45;49120.09;;;-149.77;69.68
60055;BME280;45930;53.514;55.904;2023-06-22T01:44:47;49130.00;;;-149.77;69.63
60055;BME280;45930;53.514;55.904;2023-06-22T01:45:48;49120.09;;;-149.77;69.46
60055;BME280;45930;53.514;55.904;2023-06-22T01:46:49;49112.16;;;-149.77;69.59
60055;BME280;45930;53.514;55.904;2023-06-22T01:47:51;49102.25;;;-149.77;69.96
60055;BME280;45930;53.514;55.904;2023-06-22T01:48:52;49102.25;;;-149.77;70.13
60055;BME280;45930;53.514;55.904;2023-06-22T01:49:54;49126.03;;;-149.77;70.39
60055;BME280;45930;53.514;55.904;2023-06-22T01:50:56;49106.22;;;-149.77;70.22
60055;BME280;45930;53.514;55.904;2023-06-22T01:51:57;49104.25;;;-149.77;70.28
60055;BME280;45930;53.514;55.904;2023-06-22T01:52:58;49096.31;;;-149.77;70.77
60055;BME280;45930;53.514;55.904;2023-06-22T01:53:58;49090.38;;;-149.77;70.78
60055;BME280;45930;53.514;55.904;2023-06-22T01:55:00;49090.38;;;-149.77;71.03
60055;BME280;45930;53.514;55.904;2023-06-22T01:56:00;49106.22;;;-149.77;70.29
60055;BME280;45930;53.514;55.904;2023-06-22T01:57:01;49104.25;;;-149.77;70.31
60055;BME280;45930;53.514;55.904;2023-06-22T01:58:02;49108.19;;;-149.77;70.01
60055;BME280;45930;53.514;55.904;2023-06-22T01:59:12;49106.22;;;-149.77;69.57
60055;BME280;45930;53.514;55.904;2023-06-22T02:00:18;49074.53;;;-149.77;69.51
60055;BME280;45930;53.514;55.904;2023-06-22T02:01:31;49102.25;;;-149.77;69.00
60055;BME280;45930;53.514;55.904;2023-06-22T02:03:27;49114.16;;;-149.77;67.33
60055;BME280;45930;53.514;55.904;2023-06-22T02:04:26;49110.19;;;-149.77;66.61
60055;BME280;45930;53.514;55.904;2023-06-22T02:05:33;49090.38;;;-149.77;65.88
60055;BME280;45930;53.514;55.904;2023-06-22T02:06:37;49112.16;;;-149.77;65.37
60055;BME280;45930;53.514;55.904;2023-06-22T02:07:47;49122.06;;;-149.77;64.15
60055;BME280;45930;53.514;55.904;2023-06-22T02:08:55;49131.97;;;-149.77;63.95
60055;BME280;45930;53.514;55.904;2023-06-22T02:09:58;49126.03;;;-149.77;63.29
60055;BME280;45930;53.514;55.904;2023-06-22T02:11:00;49135.94;;;-149.77;61.36
60055;BME280;45930;53.514;55.904;2023-06-22T02:12:04;49112.16;;;-149.77;60.30
60055;BME280;45930;53.514;55.904;2023-06-22T02:13:07;49131.97;;;-149.77;60.82
60055;BME280;45930;53.514;55.904;2023-06-22T02:14:08;49157.72;;;-149.77;60.63
60055;BME280;45930;53.514;55.904;2023-06-22T02:15:10;49139.91;;;-149.77;61.07
60055;BME280;45930;53.514;55.904;2023-06-22T02:16:13;49147.81;;;-149.77;60.58
60055;BME280;45930;53.514;55.904;2023-06-22T02:17:17;49149.78;;;-149.77;60.21
60055;BME280;45930;53.514;55.904;2023-06-22T02:18:18;49145.84;;;-149.77;58.92
60055;BME280;45930;53.514;55.904;2023-06-22T02:19:24;49141.88;;;-149.77;58.39
60055;BME280;45930;53.514;55.904;2023-06-22T02:20:26;49161.69;;;-149.77;58.02
60055;BME280;45930;53.514;55.904;2023-06-22T02:21:26;49139.91;;;-149.77;57.69
60055;BME280;45930;53.514;55.904;2023-06-22T02:22:27;49145.84;;;-149.77;57.18
60055;BME280;45930;53.514;55.904;2023-06-22T02:23:28;49149.78;;;-149.77;56.64
60055;BME280;45930;53.514;55.904;2023-06-22T02:24:29;49133.94;;;-149.77;55.62
60055;BME280;45930;53.514;55.904;2023-06-22T02:25:33;49159.69;;;-149.77;55.04
60055;BME280;45930;53.514;55.904;2023-06-22T02:26:34;49155.75;;;-149.77;54.61
60055;BME280;45930;53.514;55.904;2023-06-22T02:27:35;49153.75;;;-149.77;53.99
60055;BME280;45930;53.514;55.904;2023-06-22T02:28:36;49171.59;;;-149.77;53.57
60055;BME280;45930;53.514;55.904;2023-06-22T02:29:37;49169.59;;;-149.77;53.34
60055;BME280;45930;53.514;55.904;2023-06-22T02:30:37;49163.66;;;-149.77;53.37
60055;BME280;45930;53.514;55.904;2023-06-22T02:31:38;49157.72;;;-149.77;53.51
60055;BME280;45930;53.514;55.904;2023-06-22T02:32:39;49167.63;;;-149.77;53.63
60055;BME280;45930;53.514;55.904;2023-06-22T02:33:42;49163.66;;;-149.77;53.33
60055;BME280;45930;53.514;55.904;2023-06-22T02:34:44;49165.63;;;-149.77;52.85
60055;BME280;45930;53.514;55.904;2023-06-22T02:35:48;49131.97;;;-149.77;52.67
60055;BME280;45930;53.514;55.904;2023-06-22T02:36:49;49147.81;;;-149.77;52.27
60055;BME280;45930;53.514;55.904;2023-06-22T02:37:53;49139.91;;;-149.77;51.76
60055;BME280;45930;53.514;55.904;2023-06-22T02:38:55;49175.53;;;-149.77;51.69
60055;BME280;45930;53.514;55.904;2023-06-22T02:40:01;49169.59;;;-149.77;51.44
60055;BME280;45930;53.514;55.904;2023-06-22T02:41:05;49181.50;;;-149.77;51.24
60055;BME280;45930;53.514;55.904;2023-06-22T02:42:06;49173.56;;;-149.77;50.21
60055;BME280;45930;53.514;55.904;2023-06-22T02:43:07;49165.63;;;-149.77;50.09
60055;BME280;45930;53.514;55.904;2023-06-22T02:44:08;49159.69;;;-149.77;49.72
60055;BME280;45930;53.514;55.904;2023-06-22T02:45:09;49149.78;;;-149.77;49.35
60055;BME280;45930;53.514;55.904;2023-06-22T02:46:10;49143.84;;;-149.77;48.90
60055;BME280;45930;53.514;55.904;2023-06-22T02:47:11;49159.69;;;-149.77;48.51
60055;BME280;45930;53.514;55.904;2023-06-22T02:48:11;49167.63;;;-149.77;48.39
60055;BME280;45930;53.514;55.904;2023-06-22T02:49:13;49153.75;;;-149.77;48.38
60055;BME280;45930;53.514;55.904;2023-06-22T02:50:13;49133.94;;;-149.77;47.83
60055;BME280;45930;53.514;55.904;2023-06-22T02:51:14;49131.97;;;-149.77;47.04
60055;BME280;45930;53.514;55.904;2023-06-22T02:52:15;49169.59;;;-149.77;46.86
60055;BME280;45930;53.514;55.904;2023-06-22T02:53:16;49177.53;;;-149.77;46.15
60055;BME280;45930;53.514;55.904;2023-06-22T02:54:17;49165.63;;;-149.77;46.09
60055;BME280;45930;53.514;55.904;2023-06-22T02:55:18;49159.69;;;-149.77;46.01
60055;BME280;45930;53.514;55.904;2023-06-22T02:56:19;49131.97;;;-149.77;46.19
60055;BME280;45930;53.514;55.904;2023-06-22T02:57:25;49145.84;;;-149.77;45.71
60055;BME280;45930;53.514;55.904;2023-06-22T02:58:26;49177.53;;;-149.77;45.51
60055;BME280;45930;53.514;55.904;2023-06-22T02:59:27;49195.34;;;-149.77;45.06
60055;BME280;45930;53.514;55.904;2023-06-22T03:00:27;49165.63;;;-149.77;44.98
60055;BME280;45930;53.514;55.904;2023-06-22T03:01:30;49173.56;;;-149.77;44.90
60055;BME280;45930;53.514;55.904;2023-06-22T03:02:38;49169.59;;;-149.77;44.87
60055;BME280;45930;53.514;55.904;2023-06-22T03:03:38;49183.47;;;-149.77;44.71
60055;BME280;45930;53.514;55.904;2023-06-22T03:04:39;49173.56;;;-149.77;44.59
60055;BME280;45930;53.514;55.904;2023-06-22T03:05:40;49175.53;;;-149.77;44.29
60055;BME280;45930;53.514;55.904;2023-06-22T03:06:41;49193.38;;;-149.77;44.49
60055;BME280;45930;53.514;55.904;2023-06-22T03:07:42;49199.31;;;-149.77;44.56
60055;BME280;45930;53.514;55.904;2023-06-22T03:08:43;49171.59;;;-149.77;44.46
60055;BME280;45930;53.514;55.904;2023-06-22T03:09:44;49165.63;;;-149.77;44.60
60055;BME280;45930;53.514;55.904;2023-06-22T03:10:45;49211.19;;;-149.77;44.68
60055;BME280;45930;53.514;55.904;2023-06-22T03:11:46;49157.72;;;-149.77;44.81
60055;BME280;45930;53.514;55.904;2023-06-22T03:12:46;49187.44;;;-149.77;45.31
60055;BME280;45930;53.514;55.904;2023-06-22T03:13:47;49183.47;;;-149.77;45.29
60055;BME280;45930;53.514;55.904;2023-06-22T03:14:48;49163.66;;;-149.77;45.11
60055;BME280;45930;53.514;55.904;2023-06-22T03:15:49;49165.63;;;-149.77;45.13
60055;BME280;45930;53.514;55.904;2023-06-22T03:16:50;49163.66;;;-149.77;45.05
60055;BME280;45930;53.514;55.904;2023-06-22T03:17:51;49193.38;;;-149.77;44.88
60055;BME280;45930;53.514;55.904;2023-06-22T03:18:52;49177.53;;;-149.77;45.21
60055;BME280;45930;53.514;55.904;2023-06-22T03:19:57;49159.69;;;-149.77;45.34
60055;BME280;45930;53.514;55.904;2023-06-22T03:20:57;49167.63;;;-149.77;45.56
60055;BME280;45930;53.514;55.904;2023-06-22T03:21:59;49171.59;;;-149.77;45.88
60055;BME280;45930;53.514;55.904;2023-06-22T03:23:00;49141.88;;;-149.77;45.96
60055;BME280;45930;53.514;55.904;2023-06-22T03:24:01;49171.59;;;-149.77;46.16
60055;BME280;45930;53.514;55.904;2023-06-22T03:25:02;49169.59;;;-149.77;46.28
60055;BME280;45930;53.514;55.904;2023-06-22T03:26:08;49163.66;;;-149.77;46.39
60055;BME280;45930;53.514;55.904;2023-06-22T03:27:09;49169.59;;;-149.77;46.20
60055;BME280;45930;53.514;55.904;2023-06-22T03:28:10;49149.78;;;-149.77;46.25
60055;BME280;45930;53.514;55.904;2023-06-22T03:29:11;49177.53;;;-149.77;45.81
60055;BME280;45930;53.514;55.904;2023-06-22T03:30:12;49167.63;;;-149.77;45.62
60055;BME280;45930;53.514;55.904;2023-06-22T03:31:13;49201.28;;;-149.77;45.36
60055;BME280;45930;53.514;55.904;2023-06-22T03:32:13;49191.38;;;-149.77;45.20
60055;BME280;45930;53.514;55.904;2023-06-22T03:33:14;49169.59;;;-149.77;44.89
60055;BME280;45930;53.514;55.904;2023-06-22T03:34:15;49171.59;;;-149.77;45.40
60055;BME280;45930;53.514;55.904;2023-06-22T03:35:16;49159.69;;;-149.77;45.24
60055;BME280;45930;53.514;55.904;2023-06-22T03:36:18;49151.78;;;-149.77;44.91
60055;BME280;45930;53.514;55.904;2023-06-22T03:37:22;49195.34;;;-149.77;45.24
60055;BME280;45930;53.514;55.904;2023-06-22T03:38:23;49161.69;;;-149.77;44.94
60055;BME280;45930;53.514;55.904;2023-06-22T03:39:24;49179.50;;;-149.77;44.35
60055;BME280;45930;53.514;55.904;2023-06-22T03:40:25;49165.63;;;-149.77;44.05
60055;BME280;45930;53.514;55.904;2023-06-22T03:41:25;49187.44;;;-149.77;43.73
60055;BME280;45930;53.514;55.904;2023-06-22T03:42:26;49177.53;;;-149.77;43.75
60055;BME280;45930;53.514;55.904;2023-06-22T03:43:27;49147.81;;;-149.77;43.54
60055;BME280;45930;53.514;55.904;2023-06-22T03:44:28;49195.34;;;-149.77;43.34
60055;BME280;45930;53.514;55.904;2023-06-22T03:45:29;49183.47;;;-149.77;43.04
60055;BME280;45930;53.514;55.904;2023-06-22T03:46:29;49187.44;;;-149.77;43.15
60055;BME280;45930;53.514;55.904;2023-06-22T03:47:30;49197.34;;;-149.77;43.15
60055;BME280;45930;53.514;55.904;2023-06-22T03:48:31;49183.47;;;-149.77;43.33
60055;BME280;45930;53.514;55.904;2023-06-22T03:49:32;49203.28;;;-149.77;42.84
60055;BME280;45930;53.514;55.904;2023-06-22T03:50:32;49171.59;;;-149.77;42.76
60055;BME280;45930;53.514;55.904;2023-06-22T03:51:33;49183.47;;;-149.77;43.24
60055;BME280;45930;53.514;55.904;2023-06-22T03:52:34;49195.34;;;-149.77;43.09
60055;BME280;45930;53.514;55.904;2023-06-22T03:53:35;49189.41;;;-149.77;42.85
60055;BME280;45930;53.514;55.904;2023-06-22T03:54:36;49183.47;;;-149.77;42.77
60055;BME280;45930;53.514;55.904;2023-06-22T03:55:37;49173.56;;;-149.77;42.80
60055;BME280;45930;53.514;55.904;2023-06-22T03:56:38;49155.75;;;-149.77;42.80
60055;BME280;45930;53.514;55.904;2023-06-22T03:57:39;49177.53;;;-149.77;42.52
60055;BME280;45930;53.514;55.904;2023-06-22T03:58:39;49189.41;;;-149.77;42.35
60055;BME280;45930;53.514;55.904;2023-06-22T03:59:43;49187.44;;;-149.77;42.78
60055;BME280;45930;53.514;55.904;2023-06-22T04:00:47;49169.59;;;-149.77;42.46
60055;BME280;45930;53.514;55.904;2023-06-22T04:01:48;49199.31;;;-149.77;42.51
60055;BME280;45930;53.514;55.904;2023-06-22T04:02:49;49155.75;;;-149.77;42.15
60055;BME280;45930;53.514;55.904;2023-06-22T04:03:50;49169.59;;;-149.77;42.06
60055;BME280;45930;53.514;55.904;2023-06-22T04:04:51;49207.25;;;-149.77;42.58
60055;BME280;45930;53.514;55.904;2023-06-22T04:05:52;49171.59;;;-149.77;42.90
60055;BME280;45930;53.514;55.904;2023-06-22T04:06:53;49181.50;;;-149.77;42.34
60055;BME280;45930;53.514;55.904;2023-06-22T04:07:54;49203.28;;;-149.77;42.23
60055;BME280;45930;53.514;55.904;2023-06-22T04:08:54;49203.28;;;-149.77;41.17
60055;BME280;45930;53.514;55.904;2023-06-22T04:09:55;49179.50;;;-149.77;40.90
60055;BME280;45930;53.514;55.904;2023-06-22T04:10:56;49167.63;;;-149.77;41.49
60055;BME280;45930;53.514;55.904;2023-06-22T04:11:57;49179.50;;;-149.77;41.74
60055;BME280;45930;53.514;55.904;2023-06-22T04:12:58;49171.59;;;-149.77;42.21
60055;BME280;45930;53.514;55.904;2023-06-22T04:13:58;49167.63;;;-149.77;41.44
60055;BME280;45930;53.514;55.904;2023-06-22T04:14:59;49191.38;;;-149.77;41.12
60055;BME280;45930;53.514;55.904;2023-06-22T04:16:00;49211.19;;;-149.77;40.54
60055;BME280;45930;53.514;55.904;2023-06-22T04:17:02;49189.41;;;-149.77;40.58
60055;BME280;45930;53.514;55.904;2023-06-22T04:18:06;49193.38;;;-149.77;40.96
60055;BME280;45930;53.514;55.904;2023-06-22T04:19:06;49219.13;;;-149.77;40.57
60055;BME280;45930;53.514;55.904;2023-06-22T04:20:08;49197.34;;;-149.77;40.46
60055;BME280;45930;53.514;55.904;2023-06-22T04:21:10;49225.06;;;-149.77;39.86
60055;BME280;45930;53.514;55.904;2023-06-22T04:22:10;49195.34;;;-149.77;40.22
60055;BME280;45930;53.514;55.904;2023-06-22T04:23:12;49191.38;;;-149.77;40.29
60055;BME280;45930;53.514;55.904;2023-06-22T04:24:13;49183.47;;;-149.77;40.17
60055;BME280;45930;53.514;55.904;2023-06-22T04:25:14;49189.41;;;-149.77;40.46
60055;BME280;45930;53.514;55.904;2023-06-22T04:26:15;49195.34;;;-149.77;40.99
60055;BME280;45930;53.514;55.904;2023-06-22T04:27:16;49211.19;;;-149.77;41.24
60055;BME280;45930;53.514;55.904;2023-06-22T04:28:16;49183.47;;;-149.77;41.35
60055;BME280;45930;53.514;55.904;2023-06-22T04:29:17;49211.19;;;-149.77;41.20
60055;BME280;45930;53.514;55.904;2023-06-22T04:30:18;49191.38;;;-149.77;40.69
60055;BME280;45930;53.514;55.904;2023-06-22T04:31:19;49195.34;;;-149.77;40.48
60055;BME280;45930;53.514;55.904;2023-06-22T04:32:33;49195.34;;;-149.77;40.97
60055;BME280;45930;53.514;55.904;2023-06-22T04:33:34;49219.13;;;-149.77;40.85
60055;BME280;45930;53.514;55.904;2023-06-22T04:34:34;49199.31;;;-149.77;41.19
60055;BME280;45930;53.514;55.904;2023-06-22T04:35:35;49221.09;;;-149.77;41.54
60055;BME280;45930;53.514;55.904;2023-06-22T04:36:37;49171.59;;;-149.77;41.77
60055;BME280;45930;53.514;55.904;2023-06-22T04:37:39;49189.41;;;-149.77;41.52
60055;BME280;45930;53.514;55.904;2023-06-22T04:38:40;49187.44;;;-149.77;41.44
60055;BME280;45930;53.514;55.904;2023-06-22T04:39:42;49203.28;;;-149.77;41.21
60055;BME280;45930;53.514;55.904;2023-06-22T04:40:43;49181.50;;;-149.77;41.55
60055;BME280;45930;53.514;55.904;2023-06-22T04:41:45;49195.34;;;-149.77;41.36
60055;BME280;45930;53.514;55.904;2023-06-22T04:42:45;49179.50;;;-149.77;41.62
60055;BME280;45930;53.514;55.904;2023-06-22T04:43:52;49233.00;;;-149.77;41.65
60055;BME280;45930;53.514;55.904;2023-06-22T04:44:54;49181.50;;;-149.77;41.81
60055;BME280;45930;53.514;55.904;2023-06-22T04:45:55;49187.44;;;-149.77;41.63
60055;BME280;45930;53.514;55.904;2023-06-22T04:46:58;49197.34;;;-149.77;41.33
60055;BME280;45930;53.514;55.904;2023-06-22T04:48:05;49179.50;;;-149.77;41.42
60055;BME280;45930;53.514;55.904;2023-06-22T04:49:09;49211.19;;;-149.77;41.42
60055;BME280;45930;53.514;55.904;2023-06-22T04:50:13;49209.22;;;-149.77;41.17
60055;BME280;45930;53.514;55.904;2023-06-22T04:51:14;49201.28;;;-149.77;41.23
60055;BME280;45930;53.514;55.904;2023-06-22T04:52:15;49207.25;;;-149.77;40.91
60055;BME280;45930;53.514;55.904;2023-06-22T04:53:18;49215.16;;;-149.77;41.21
60055;BME280;45930;53.514;55.904;2023-06-22T04:54:19;49199.31;;;-149.77;40.66
60055;BME280;45930;53.514;55.904;2023-06-22T04:55:20;49219.13;;;-149.77;40.54
60055;BME280;45930;53.514;55.904;2023-06-22T04:56:21;49199.31;;;-149.77;41.31
60055;BME280;45930;53.514;55.904;2023-06-22T04:57:28;49213.19;;;-149.77;41.15
60055;BME280;45930;53.514;55.904;2023-06-22T04:58:33;49177.53;;;-149.77;41.25
60055;BME280;45930;53.514;55.904;2023-06-22T04:59:34;49213.19;;;-149.77;41.44
60055;BME280;45930;53.514;55.904;2023-06-22T05:00:35;49201.28;;;-149.77;40.86
60055;BME280;45930;53.514;55.904;2023-06-22T05:01:36;49205.25;;;-149.77;40.84
60055;BME280;45930;53.514;55.904;2023-06-22T05:02:40;49169.59;;;-149.77;40.76
60055;BME280;45930;53.514;55.904;2023-06-22T05:03:41;49199.31;;;-149.77;41.09
60055;BME280;45930;53.514;55.904;2023-06-22T05:04:42;49201.28;;;-149.77;40.81
60055;BME280;45930;53.514;55.904;2023-06-22T05:05:43;49219.13;;;-149.77;40.78
60055;BME280;45930;53.514;55.904;2023-06-22T05:06:43;49223.09;;;-149.77;41.12
60055;BME280;45930;53.514;55.904;2023-06-22T05:07:46;49203.28;;;-149.77;40.98
60055;BME280;45930;53.514;55.904;2023-06-22T05:08:56;49219.13;;;-149.77;40.56
60055;BME280;45930;53.514;55.904;2023-06-22T05:10:01;49201.28;;;-149.77;40.32
60055;BME280;45930;53.514;55.904;2023-06-22T05:11:05;49223.09;;;-149.77;40.58
60055;BME280;45930;53.514;55.904;2023-06-22T05:12:06;49203.28;;;-149.77;40.57
60055;BME280;45930;53.514;55.904;2023-06-22T05:13:08;49197.34;;;-149.77;40.79
60055;BME280;45930;53.514;55.904;2023-06-22T05:14:09;49175.53;;;-149.77;40.46
60055;BME280;45930;53.514;55.904;2023-06-22T05:15:10;49205.25;;;-149.77;40.54
60055;BME280;45930;53.514;55.904;2023-06-22T05:16:10;49205.25;;;-149.77;40.70
60055;BME280;45930;53.514;55.904;2023-06-22T05:17:11;49215.16;;;-149.77;40.79
60055;BME280;45930;53.514;55.904;2023-06-22T05:18:25;49207.25;;;-149.77;40.84
60055;BME280;45930;53.514;55.904;2023-06-22T05:19:26;49205.25;;;-149.77;40.96
60055;BME280;45930;53.514;55.904;2023-06-22T05:20:33;49193.38;;;-149.77;41.49
60055;BME280;45930;53.514;55.904;2023-06-22T05:21:37;49195.34;;;-149.77;41.59
60055;BME280;45930;53.514;55.904;2023-06-22T05:22:39;49199.31;;;-149.77;41.24
60055;BME280;45930;53.514;55.904;2023-06-22T05:23:40;49173.56;;;-149.77;40.90